sensor_id;sensor_type;location;lat;lon;timestamp;P1;durP1;ratioP1;P2;durP2;ratioP2
41167;SDS011;26906;45.658;9.272;2023-01-10T06:36:29;0.50;;;0.40;;
41167;SDS011;26906;45.658;9.272;2023-01-10T06:38:55;1.23;;;0.30;;
41167;SDS011;26906;45.658;9.272;2023-01-10T06:41:21;1.08;;;0.50;;
41167;SDS011;26906;45.658;9.272;2023-01-10T06:43:47;1.58;;;0.60;;
41167;SDS011;26906;45.658;9.272;2023-01-10T06:46:14;2.35;;;0.50;;
41167;SDS011;26906;45.658;9.272;2023-01-10T06:48:42;6.45;;;0.77;;
41167;SDS011;26906;45.658;9.272;2023-01-10T06:51:09;0.30;;;0.30;;
41167;SDS011;26906;45.658;9.272;2023-01-10T06:53:36;0.70;;;0.63;;
41167;SDS011;26906;45.658;9.272;2023-01-10T06:56:02;1.45;;;0.65;;
41167;SDS011;26906;45.658;9.272;2023-01-10T06:58:30;0.75;;;0.50;;
41167;SDS011;26906;45.658;9.272;2023-01-10T07:00:57;2.88;;;0.60;;
41167;SDS011;26906;45.658;9.272;2023-01-10T07:03:22;1.67;;;0.60;;
41167;SDS011;26906;45.658;9.272;2023-01-10T07:05:48;2.25;;;0.93;;
41167;SDS011;26906;45.658;9.272;2023-01-10T07:08:14;2.97;;;1.50;;
41167;SDS011;26906;45.658;9.272;2023-01-10T07:10:40;1.50;;;1.17;;
41167;SDS011;26906;45.658;9.272;2023-01-10T07:13:07;1.23;;;0.80;;
41167;SDS011;26906;45.658;9.272;2023-01-10T07:15:33;2.55;;;1.15;;
41167;SDS011;26906;45.658;9.272;2023-01-10T07:17:59;5.28;;;1.23;;
41167;SDS011;26906;45.658;9.272;2023-01-10T07:20:25;2.92;;;1.20;;
41167;SDS011;26906;45.658;9.272;2023-01-10T07:22:52;2.45;;;1.00;;
41167;SDS011;26906;45.658;9.272;2023-01-10T07:25:25;2.27;;;1.00;;
41167;SDS011;26906;45.658;9.272;2023-01-10T07:27:52;2.95;;;1.40;;
41167;SDS011;26906;45.658;9.272;2023-01-10T07:30:21;5.90;;;1.58;;
41167;SDS011;26906;45.658;9.272;2023-01-10T07:32:56;16.00;;;2.10;;
41167;SDS011;26906;45.658;9.272;2023-01-10T07:35:22;5.28;;;1.40;;
41167;SDS011;26906;45.658;9.272;2023-01-10T07:37:49;4.78;;;1.60;;
41167;SDS011;26906;45.658;9.272;2023-01-10T07:40:14;4.15;;;1.50;;
41167;SDS011;26906;45.658;9.272;2023-01-10T07:42:40;7.68;;;1.50;;
41167;SDS011;26906;45.658;9.272;2023-01-10T07:45:06;5.63;;;1.73;;
41167;SDS011;26906;45.658;9.272;2023-01-10T07:47:32;4.97;;;1.58;;
41167;SDS011;26906;45.658;9.272;2023-01-10T07:49:58;7.70;;;2.47;;
41167;SDS011;26906;45.658;9.272;2023-01-10T07:52:24;4.53;;;2.00;;
41167;SDS011;26906;45.658;9.272;2023-01-10T07:54:50;4.60;;;2.17;;
41167;SDS011;26906;45.658;9.272;2023-01-10T07:57:17;7.47;;;2.53;;
41167;SDS011;26906;45.658;9.272;2023-01-10T07:59:43;13.20;;;2.88;;
41167;SDS011;26906;45.658;9.272;2023-01-10T08:02:09;10.98;;;2.75;;
41167;SDS011;26906;45.658;9.272;2023-01-10T08:04:35;11.27;;;2.05;;
41167;SDS011;26906;45.658;9.272;2023-01-10T08:07:02;12.93;;;2.30;;
41167;SDS011;26906;45.658;9.272;2023-01-10T08:09:28;7.57;;;1.73;;
41167;SDS011;26906;45.658;9.272;2023-01-10T08:11:54;7.22;;;1.50;;
41167;SDS011;26906;45.658;9.272;2023-01-10T08:14:20;3.13;;;1.20;;
41167;SDS011;26906;45.658;9.272;2023-01-10T08:16:45;3.55;;;1.40;;
41167;SDS011;26906;45.658;9.272;2023-01-10T08:19:11;22.70;;;1.90;;
41167;SDS011;26906;45.658;9.272;2023-01-10T08:21:40;4.10;;;1.13;;
41167;SDS011;26906;45.658;9.272;2023-01-10T08:24:07;8.88;;;1.38;;
41167;SDS011;26906;45.658;9.272;2023-01-10T08:26:33;4.35;;;1.40;;
41167;SDS011;26906;45.658;9.272;2023-01-10T08:28:59;5.55;;;1.40;;
41167;SDS011;26906;45.658;9.272;2023-01-10T08:31:25;13.82;;;2.70;;
41167;SDS011;26906;45.658;9.272;2023-01-10T08:33:52;23.48;;;3.10;;
41167;SDS011;26906;45.658;9.272;2023-01-10T08:36:18;6.80;;;1.40;;
41167;SDS011;26906;45.658;9.272;2023-01-10T08:38:46;9.40;;;1.73;;
41167;SDS011;26906;45.658;9.272;2023-01-10T08:41:13;6.63;;;1.30;;
41167;SDS011;26906;45.658;9.272;2023-01-10T08:43:39;10.23;;;1.35;;
41167;SDS011;26906;45.658;9.272;2023-01-10T08:46:05;1.27;;;0.60;;
41167;SDS011;26906;45.658;9.272;2023-01-10T08:48:31;1.58;;;0.68;;
41167;SDS011;26906;45.658;9.272;2023-01-10T08:50:56;6.38;;;0.90;;
41167;SDS011;26906;45.658;9.272;2023-01-10T08:53:22;1.20;;;0.30;;
41167;SDS011;26906;45.658;9.272;2023-01-10T08:55:48;0.40;;;0.32;;
41167;SDS011;26906;45.658;9.272;2023-01-10T08:58:14;2.92;;;0.40;;
41167;SDS011;26906;45.658;9.272;2023-01-10T09:00:39;1.90;;;0.50;;
41167;SDS011;26906;45.658;9.272;2023-01-10T09:03:05;1.23;;;0.45;;
41167;SDS011;26906;45.658;9.272;2023-01-10T09:05:32;8.20;;;1.08;;
41167;SDS011;26906;45.658;9.272;2023-01-10T09:07:58;0.30;;;0.28;;
41167;SDS011;26906;45.658;9.272;2023-01-10T09:10:28;0.35;;;0.30;;
41167;SDS011;26906;45.658;9.272;2023-01-10T09:12:54;1.42;;;0.88;;
41167;SDS011;26906;45.658;9.272;2023-01-10T09:15:29;0.32;;;0.20;;
41167;SDS011;26906;45.658;9.272;2023-01-10T09:20:26;2.17;;;0.47;;
41167;SDS011;26906;45.658;9.272;2023-01-10T09:22:53;0.20;;;0.20;;
41167;SDS011;26906;45.658;9.272;2023-01-10T09:25:19;0.80;;;0.45;;
41167;SDS011;26906;45.658;9.272;2023-01-10T09:27:45;3.65;;;0.57;;
41167;SDS011;26906;45.658;9.272;2023-01-10T09:30:11;0.50;;;0.30;;
41167;SDS011;26906;45.658;9.272;2023-01-10T09:32:37;0.32;;;0.32;;
41167;SDS011;26906;45.658;9.272;2023-01-10T09:35:02;2.67;;;0.30;;
41167;SDS011;26906;45.658;9.272;2023-01-10T09:37:28;3.15;;;0.22;;
41167;SDS011;26906;45.658;9.272;2023-01-10T09:39:54;5.43;;;0.40;;
41167;SDS011;26906;45.658;9.272;2023-01-10T09:47:46;4.03;;;0.40;;
41167;SDS011;26906;45.658;9.272;2023-01-10T09:50:34;0.65;;;0.30;;
41167;SDS011;26906;45.658;9.272;2023-01-10T09:53:19;0.50;;;0.30;;
41167;SDS011;26906;45.658;9.272;2023-01-10T09:55:52;1.13;;;0.57;;
41167;SDS011;26906;45.658;9.272;2023-01-10T09:58:23;4.18;;;0.47;;
41167;SDS011;26906;45.658;9.272;2023-01-10T10:01:08;0.90;;;0.30;;
41167;SDS011;26906;45.658;9.272;2023-01-10T10:03:45;0.20;;;0.20;;
41167;SDS011;26906;45.658;9.272;2023-01-10T10:06:21;4.00;;;2.05;;
41167;SDS011;26906;45.658;9.272;2023-01-10T10:08:47;0.90;;;0.70;;
41167;SDS011;26906;45.658;9.272;2023-01-10T10:13:53;1.67;;;0.30;;
41167;SDS011;26906;45.658;9.272;2023-01-10T10:16:30;1.85;;;0.40;;
41167;SDS011;26906;45.658;9.272;2023-01-10T10:19:07;0.50;;;0.43;;
41167;SDS011;26906;45.658;9.272;2023-01-10T10:24:47;3.63;;;0.40;;
41167;SDS011;26906;45.658;9.272;2023-01-10T10:27:49;2.10;;;1.25;;
41167;SDS011;26906;45.658;9.272;2023-01-10T10:35:29;1.23;;;0.60;;
41167;SDS011;26906;45.658;9.272;2023-01-10T10:38:07;0.30;;;0.30;;
41167;SDS011;26906;45.658;9.272;2023-01-10T10:40:41;0.30;;;0.30;;
41167;SDS011;26906;45.658;9.272;2023-01-10T10:43:51;0.30;;;0.20;;
41167;SDS011;26906;45.658;9.272;2023-01-10T10:46:00;0.20;;;0.20;;
41167;SDS011;26906;45.658;9.272;2023-01-10T10:48:39;0.85;;;0.25;;
41167;SDS011;26906;45.658;9.272;2023-01-10T10:51:43;0.73;;;0.30;;
41167;SDS011;26906;45.658;9.272;2023-01-10T10:54:12;0.55;;;0.50;;
41167;SDS011;26906;45.658;9.272;2023-01-10T10:56:40;0.90;;;0.50;;
41167;SDS011;26906;45.658;9.272;2023-01-10T10:59:07;1.73;;;0.50;;
41167;SDS011;26906;45.658;9.272;2023-01-10T11:01:33;1.00;;;0.68;;
41167;SDS011;26906;45.658;9.272;2023-01-10T11:06:27;1.13;;;0.68;;
41167;SDS011;26906;45.658;9.272;2023-01-10T11:08:55;1.23;;;0.30;;
41167;SDS011;26906;45.658;9.272;2023-01-10T11:11:31;2.85;;;0.50;;
41167;SDS011;26906;45.658;9.272;2023-01-10T11:14:03;0.80;;;0.30;;
41167;SDS011;26906;45.658;9.272;2023-01-10T11:16:32;1.15;;;0.40;;
41167;SDS011;26906;45.658;9.272;2023-01-10T11:21:39;1.17;;;0.20;;
41167;SDS011;26906;45.658;9.272;2023-01-10T11:24:15;0.40;;;0.20;;
41167;SDS011;26906;45.658;9.272;2023-01-10T11:27:01;0.30;;;0.30;;
41167;SDS011;26906;45.658;9.272;2023-01-10T11:29:41;0.32;;;0.30;;
41167;SDS011;26906;45.658;9.272;2023-01-10T11:32:14;0.45;;;0.28;;
41167;SDS011;26906;45.658;9.272;2023-01-10T11:34:52;2.45;;;0.50;;
41167;SDS011;26906;45.658;9.272;2023-01-10T11:37:27;1.38;;;0.63;;
41167;SDS011;26906;45.658;9.272;2023-01-10T11:42:47;0.60;;;0.50;;
41167;SDS011;26906;45.658;9.272;2023-01-10T11:47:44;0.40;;;0.25;;
41167;SDS011;26906;45.658;9.272;2023-01-10T11:50:10;0.30;;;0.30;;
41167;SDS011;26906;45.658;9.272;2023-01-10T11:52:41;0.20;;;0.20;;
41167;SDS011;26906;45.658;9.272;2023-01-10T11:55:09;1.15;;;0.32;;
41167;SDS011;26906;45.658;9.272;2023-01-10T11:57:35;0.28;;;0.20;;
41167;SDS011;26906;45.658;9.272;2023-01-10T12:00:06;1.17;;;0.28;;
41167;SDS011;26906;45.658;9.272;2023-01-10T12:02:40;0.20;;;0.20;;
41167;SDS011;26906;45.658;9.272;2023-01-10T12:05:10;0.75;;;0.38;;
41167;SDS011;26906;45.658;9.272;2023-01-10T12:10:31;1.30;;;0.63;;
41167;SDS011;26906;45.658;9.272;2023-01-10T12:12:58;0.32;;;0.30;;
41167;SDS011;26906;45.658;9.272;2023-01-10T12:15:31;1.38;;;0.47;;
41167;SDS011;26906;45.658;9.272;2023-01-10T12:17:59;4.03;;;0.50;;
41167;SDS011;26906;45.658;9.272;2023-01-10T12:20:28;2.33;;;0.30;;
41167;SDS011;26906;45.658;9.272;2023-01-10T12:22:58;0.22;;;0.20;;
41167;SDS011;26906;45.658;9.272;2023-01-10T12:25:34;0.20;;;0.20;;
41167;SDS011;26906;45.658;9.272;2023-01-10T12:28:02;0.88;;;0.30;;
41167;SDS011;26906;45.658;9.272;2023-01-10T12:33:27;0.70;;;0.40;;
41167;SDS011;26906;45.658;9.272;2023-01-10T12:39:22;0.35;;;0.20;;
41167;SDS011;26906;45.658;9.272;2023-01-10T12:44:51;0.40;;;0.20;;
41167;SDS011;26906;45.658;9.272;2023-01-10T12:47:28;0.50;;;0.28;;
41167;SDS011;26906;45.658;9.272;2023-01-10T12:49:56;2.15;;;0.40;;
41167;SDS011;26906;45.658;9.272;2023-01-10T12:52:35;0.47;;;0.30;;
41167;SDS011;26906;45.658;9.272;2023-01-10T12:55:17;0.57;;;0.30;;
41167;SDS011;26906;45.658;9.272;2023-01-10T12:57:46;0.50;;;0.38;;
41167;SDS011;26906;45.658;9.272;2023-01-10T13:00:23;0.30;;;0.30;;
41167;SDS011;26906;45.658;9.272;2023-01-10T13:02:54;8.02;;;1.20;;
41167;SDS011;26906;45.658;9.272;2023-01-10T13:05:23;0.95;;;0.30;;
41167;SDS011;26906;45.658;9.272;2023-01-10T13:07:50;1.75;;;0.57;;
41167;SDS011;26906;45.658;9.272;2023-01-10T13:10:20;0.50;;;0.30;;
41167;SDS011;26906;45.658;9.272;2023-01-10T13:12:49;0.38;;;0.25;;
41167;SDS011;26906;45.658;9.272;2023-01-10T13:15:33;0.25;;;0.20;;
41167;SDS011;26906;45.658;9.272;2023-01-10T13:18:23;4.63;;;1.58;;
41167;SDS011;26906;45.658;9.272;2023-01-10T13:21:09;3.08;;;0.65;;
41167;SDS011;26906;45.658;9.272;2023-01-10T13:24:03;0.20;;;0.20;;
41167;SDS011;26906;45.658;9.272;2023-01-10T13:29:22;1.38;;;0.40;;
41167;SDS011;26906;45.658;9.272;2023-01-10T13:31:48;1.80;;;0.90;;
41167;SDS011;26906;45.658;9.272;2023-01-10T13:34:21;0.38;;;0.20;;
41167;SDS011;26906;45.658;9.272;2023-01-10T13:36:54;2.35;;;0.90;;
41167;SDS011;26906;45.658;9.272;2023-01-10T13:39:43;0.40;;;0.20;;
41167;SDS011;26906;45.658;9.272;2023-01-10T13:42:27;1.60;;;0.20;;
41167;SDS011;26906;45.658;9.272;2023-01-10T13:55:31;0.63;;;0.55;;
41167;SDS011;26906;45.658;9.272;2023-01-10T14:00:42;0.63;;;0.20;;
41167;SDS011;26906;45.658;9.272;2023-01-10T14:08:54;1.15;;;0.38;;
41167;SDS011;26906;45.658;9.272;2023-01-10T14:11:28;0.93;;;0.40;;
41167;SDS011;26906;45.658;9.272;2023-01-10T14:14:14;0.63;;;0.30;;
41167;SDS011;26906;45.658;9.272;2023-01-10T14:16:47;0.30;;;0.30;;
41167;SDS011;26906;45.658;9.272;2023-01-10T14:21:52;0.50;;;0.30;;
41167;SDS011;26906;45.658;9.272;2023-01-10T14:27:17;0.93;;;0.30;;
41167;SDS011;26906;45.658;9.272;2023-01-10T14:29:50;0.47;;;0.30;;
41167;SDS011;26906;45.658;9.272;2023-01-10T14:32:36;1.35;;;0.30;;
41167;SDS011;26906;45.658;9.272;2023-01-10T14:35:05;0.52;;;0.20;;
41167;SDS011;26906;45.658;9.272;2023-01-10T14:37:38;0.90;;;0.30;;
41167;SDS011;26906;45.658;9.272;2023-01-10T14:43:24;1.50;;;0.80;;
41167;SDS011;26906;45.658;9.272;2023-01-10T14:46:57;0.73;;;0.73;;
41167;SDS011;26906;45.658;9.272;2023-01-10T14:49:14;2.53;;;0.30;;
41167;SDS011;26906;45.658;9.272;2023-01-10T14:51:42;0.38;;;0.30;;
41167;SDS011;26906;45.658;9.272;2023-01-10T14:54:11;1.02;;;0.30;;
41167;SDS011;26906;45.658;9.272;2023-01-10T14:59:14;3.00;;;0.50;;
41167;SDS011;26906;45.658;9.272;2023-01-10T15:02:15;1.65;;;0.60;;
41167;SDS011;26906;45.658;9.272;2023-01-10T15:04:55;0.90;;;0.55;;
41167;SDS011;26906;45.658;9.272;2023-01-10T15:07:21;0.40;;;0.40;;
41167;SDS011;26906;45.658;9.272;2023-01-10T15:09:50;2.85;;;0.60;;
41167;SDS011;26906;45.658;9.272;2023-01-10T15:12:17;0.57;;;0.52;;
41167;SDS011;26906;45.658;9.272;2023-01-10T15:14:44;1.42;;;0.50;;
41167;SDS011;26906;45.658;9.272;2023-01-10T15:17:15;1.23;;;0.50;;
41167;SDS011;26906;45.658;9.272;2023-01-10T15:19:44;2.22;;;1.00;;
41167;SDS011;26906;45.658;9.272;2023-01-10T15:22:29;4.32;;;1.98;;
41167;SDS011;26906;45.658;9.272;2023-01-10T15:25:15;2.95;;;2.25;;
41167;SDS011;26906;45.658;9.272;2023-01-10T15:28:12;0.68;;;0.68;;
41167;SDS011;26906;45.658;9.272;2023-01-10T15:30:43;0.40;;;0.40;;
41167;SDS011;26906;45.658;9.272;2023-01-10T15:33:11;0.50;;;0.50;;
41167;SDS011;26906;45.658;9.272;2023-01-10T15:35:45;0.30;;;0.30;;
41167;SDS011;26906;45.658;9.272;2023-01-10T15:38:12;1.25;;;0.70;;
41167;SDS011;26906;45.658;9.272;2023-01-10T15:40:40;1.05;;;0.50;;
41167;SDS011;26906;45.658;9.272;2023-01-10T15:45:41;1.80;;;0.60;;
41167;SDS011;26906;45.658;9.272;2023-01-10T15:56:32;1.20;;;0.80;;
41167;SDS011;26906;45.658;9.272;2023-01-10T15:59:04;1.02;;;0.93;;
41167;SDS011;26906;45.658;9.272;2023-01-10T16:01:43;2.38;;;0.85;;
41167;SDS011;26906;45.658;9.272;2023-01-10T16:04:20;3.20;;;2.10;;
41167;SDS011;26906;45.658;9.272;2023-01-10T16:06:47;2.60;;;1.30;;
41167;SDS011;26906;45.658;9.272;2023-01-10T16:09:20;6.05;;;1.20;;
41167;SDS011;26906;45.658;9.272;2023-01-10T16:11:47;2.20;;;0.90;;
41167;SDS011;26906;45.658;9.272;2023-01-10T16:14:33;1.27;;;0.93;;
41167;SDS011;26906;45.658;9.272;2023-01-10T16:17:02;2.13;;;1.00;;
41167;SDS011;26906;45.658;9.272;2023-01-10T16:19:29;4.78;;;1.00;;
41167;SDS011;26906;45.658;9.272;2023-01-10T16:21:55;1.55;;;1.05;;
41167;SDS011;26906;45.658;9.272;2023-01-10T16:24:29;1.58;;;0.80;;
41167;SDS011;26906;45.658;9.272;2023-01-10T16:26:58;1.52;;;0.80;;
41167;SDS011;26906;45.658;9.272;2023-01-10T16:29:27;2.88;;;0.90;;
41167;SDS011;26906;45.658;9.272;2023-01-10T16:31:53;3.17;;;0.80;;
41167;SDS011;26906;45.658;9.272;2023-01-10T16:34:19;6.82;;;1.75;;
41167;SDS011;26906;45.658;9.272;2023-01-10T16:36:45;5.00;;;1.77;;
41167;SDS011;26906;45.658;9.272;2023-01-10T16:39:15;3.53;;;1.95;;
41167;SDS011;26906;45.658;9.272;2023-01-10T16:41:45;10.32;;;2.13;;
41167;SDS011;26906;45.658;9.272;2023-01-10T16:44:29;17.92;;;3.50;;
41167;SDS011;26906;45.658;9.272;2023-01-10T16:46:56;5.20;;;3.30;;
41167;SDS011;26906;45.658;9.272;2023-01-10T16:49:25;5.50;;;2.70;;
41167;SDS011;26906;45.658;9.272;2023-01-10T16:51:51;5.00;;;2.80;;
41167;SDS011;26906;45.658;9.272;2023-01-10T16:54:21;6.50;;;2.17;;
41167;SDS011;26906;45.658;9.272;2023-01-10T16:56:49;2.55;;;1.33;;
41167;SDS011;26906;45.658;9.272;2023-01-10T16:59:16;1.52;;;1.23;;
41167;SDS011;26906;45.658;9.272;2023-01-10T17:01:43;1.13;;;0.90;;
41167;SDS011;26906;45.658;9.272;2023-01-10T17:04:15;1.58;;;1.05;;
41167;SDS011;26906;45.658;9.272;2023-01-10T17:06:45;1.23;;;0.90;;
41167;SDS011;26906;45.658;9.272;2023-01-10T17:09:24;1.33;;;1.13;;
41167;SDS011;26906;45.658;9.272;2023-01-10T17:11:55;4.68;;;1.48;;
41167;SDS011;26906;45.658;9.272;2023-01-10T17:14:31;1.52;;;1.20;;
41167;SDS011;26906;45.658;9.272;2023-01-10T17:16:59;2.17;;;1.20;;
41167;SDS011;26906;45.658;9.272;2023-01-10T17:19:24;2.10;;;1.67;;
41167;SDS011;26906;45.658;9.272;2023-01-10T17:21:50;3.58;;;2.53;;
41167;SDS011;26906;45.658;9.272;2023-01-10T17:24:16;4.15;;;2.90;;
41167;SDS011;26906;45.658;9.272;2023-01-10T17:26:42;4.70;;;3.40;;
41167;SDS011;26906;45.658;9.272;2023-01-10T17:29:08;7.68;;;3.20;;
41167;SDS011;26906;45.658;9.272;2023-01-10T17:31:34;3.83;;;2.65;;
41167;SDS011;26906;45.658;9.272;2023-01-10T17:33:59;4.47;;;2.60;;
41167;SDS011;26906;45.658;9.272;2023-01-10T17:36:25;3.58;;;1.80;;
41167;SDS011;26906;45.658;9.272;2023-01-10T17:38:54;3.35;;;1.77;;
41167;SDS011;26906;45.658;9.272;2023-01-10T17:41:20;3.03;;;2.10;;
41167;SDS011;26906;45.658;9.272;2023-01-10T17:43:46;6.70;;;1.52;;
41167;SDS011;26906;45.658;9.272;2023-01-10T17:46:13;3.17;;;1.70;;
41167;SDS011;26906;45.658;9.272;2023-01-10T17:48:45;1.50;;;1.20;;
41167;SDS011;26906;45.658;9.272;2023-01-10T17:51:11;3.10;;;1.63;;
41167;SDS011;26906;45.658;9.272;2023-01-10T17:53:38;4.57;;;2.83;;
41167;SDS011;26906;45.658;9.272;2023-01-10T17:56:04;4.90;;;2.80;;
41167;SDS011;26906;45.658;9.272;2023-01-10T17:58:30;6.30;;;2.45;;
41167;SDS011;26906;45.658;9.272;2023-01-10T18:00:56;4.80;;;1.38;;
41167;SDS011;26906;45.658;9.272;2023-01-10T18:03:22;1.40;;;1.08;;
41167;SDS011;26906;45.658;9.272;2023-01-10T18:05:52;2.13;;;1.20;;
41167;SDS011;26906;45.658;9.272;2023-01-10T18:08:19;3.05;;;1.50;;
41167;SDS011;26906;45.658;9.272;2023-01-10T18:10:46;5.03;;;1.88;;
41167;SDS011;26906;45.658;9.272;2023-01-10T18:13:14;5.40;;;2.55;;
41167;SDS011;26906;45.658;9.272;2023-01-10T18:15:43;5.85;;;2.97;;
41167;SDS011;26906;45.658;9.272;2023-01-10T18:18:10;4.32;;;2.70;;
41167;SDS011;26906;45.658;9.272;2023-01-10T18:20:40;5.25;;;3.55;;
41167;SDS011;26906;45.658;9.272;2023-01-10T18:23:13;5.85;;;3.17;;
41167;SDS011;26906;45.658;9.272;2023-01-10T18:25:57;5.45;;;3.22;;
41167;SDS011;26906;45.658;9.272;2023-01-10T18:28:28;5.57;;;3.05;;
41167;SDS011;26906;45.658;9.272;2023-01-10T18:31:04;6.22;;;2.55;;
41167;SDS011;26906;45.658;9.272;2023-01-10T18:33:31;6.32;;;2.60;;
41167;SDS011;26906;45.658;9.272;2023-01-10T18:36:00;4.00;;;2.80;;
41167;SDS011;26906;45.658;9.272;2023-01-10T18:38:30;2.78;;;2.17;;
41167;SDS011;26906;45.658;9.272;2023-01-10T18:40:56;3.20;;;2.30;;
41167;SDS011;26906;45.658;9.272;2023-01-10T18:43:22;3.70;;;1.85;;
41167;SDS011;26906;45.658;9.272;2023-01-10T18:45:56;2.85;;;2.10;;
41167;SDS011;26906;45.658;9.272;2023-01-10T18:48:26;2.35;;;2.00;;
41167;SDS011;26906;45.658;9.272;2023-01-10T18:50:53;3.60;;;2.20;;
41167;SDS011;26906;45.658;9.272;2023-01-10T18:53:19;2.75;;;2.20;;
41167;SDS011;26906;45.658;9.272;2023-01-10T18:55:57;3.38;;;1.92;;
41167;SDS011;26906;45.658;9.272;2023-01-10T18:58:26;2.90;;;2.05;;
41167;SDS011;26906;45.658;9.272;2023-01-10T19:00:54;3.42;;;2.00;;
41167;SDS011;26906;45.658;9.272;2023-01-10T19:03:20;5.75;;;3.92;;
41167;SDS011;26906;45.658;9.272;2023-01-10T19:05:46;5.75;;;3.33;;
41167;SDS011;26906;45.658;9.272;2023-01-10T19:08:12;6.50;;;4.00;;
41167;SDS011;26906;45.658;9.272;2023-01-10T19:10:41;5.47;;;3.13;;
41167;SDS011;26906;45.658;9.272;2023-01-10T19:13:07;6.05;;;2.80;;
41167;SDS011;26906;45.658;9.272;2023-01-10T19:15:33;5.55;;;2.65;;
41167;SDS011;26906;45.658;9.272;2023-01-10T19:17:59;4.20;;;2.45;;
41167;SDS011;26906;45.658;9.272;2023-01-10T19:20:26;5.53;;;2.75;;
41167;SDS011;26906;45.658;9.272;2023-01-10T19:22:52;5.20;;;3.17;;
41167;SDS011;26906;45.658;9.272;2023-01-10T19:25:18;6.95;;;3.33;;
41167;SDS011;26906;45.658;9.272;2023-01-10T19:27:45;5.97;;;3.65;;
41167;SDS011;26906;45.658;9.272;2023-01-10T19:30:11;6.07;;;3.38;;
41167;SDS011;26906;45.658;9.272;2023-01-10T19:32:39;5.75;;;3.10;;
41167;SDS011;26906;45.658;9.272;2023-01-10T19:35:05;7.70;;;3.55;;
41167;SDS011;26906;45.658;9.272;2023-01-10T19:37:31;4.13;;;3.00;;
41167;SDS011;26906;45.658;9.272;2023-01-10T19:39:57;5.78;;;3.15;;
41167;SDS011;26906;45.658;9.272;2023-01-10T19:42:23;5.53;;;3.88;;
41167;SDS011;26906;45.658;9.272;2023-01-10T19:44:49;5.95;;;3.88;;
41167;SDS011;26906;45.658;9.272;2023-01-10T19:47:15;6.68;;;2.97;;
41167;SDS011;26906;45.658;9.272;2023-01-10T19:49:41;6.85;;;3.17;;
41167;SDS011;26906;45.658;9.272;2023-01-10T19:52:07;6.95;;;2.75;;
41167;SDS011;26906;45.658;9.272;2023-01-10T19:54:33;4.70;;;3.50;;
41167;SDS011;26906;45.658;9.272;2023-01-10T19:57:02;9.15;;;3.40;;
41167;SDS011;26906;45.658;9.272;2023-01-10T19:59:28;8.98;;;6.60;;
41167;SDS011;26906;45.658;9.272;2023-01-10T20:01:56;6.82;;;4.43;;
41167;SDS011;26906;45.658;9.272;2023-01-10T20:04:22;4.70;;;3.55;;
41167;SDS011;26906;45.658;9.272;2023-01-10T20:06:47;6.30;;;3.70;;
41167;SDS011;26906;45.658;9.272;2023-01-10T20:09:13;8.38;;;4.30;;
41167;SDS011;26906;45.658;9.272;2023-01-10T20:11:39;7.35;;;4.40;;
41167;SDS011;26906;45.658;9.272;2023-01-10T20:14:09;9.48;;;4.78;;
41167;SDS011;26906;45.658;9.272;2023-01-10T20:16:40;10.80;;;5.20;;
41167;SDS011;26906;45.658;9.272;2023-01-10T20:19:07;10.68;;;5.28;;
41167;SDS011;26906;45.658;9.272;2023-01-10T20:21:34;8.85;;;5.45;;
41167;SDS011;26906;45.658;9.272;2023-01-10T20:24:01;11.02;;;5.82;;
41167;SDS011;26906;45.658;9.272;2023-01-10T20:26:27;8.25;;;5.20;;
41167;SDS011;26906;45.658;9.272;2023-01-10T20:28:58;8.70;;;4.95;;
41167;SDS011;26906;45.658;9.272;2023-01-10T20:31:25;7.15;;;4.60;;
41167;SDS011;26906;45.658;9.272;2023-01-10T20:33:53;23.67;;;13.75;;
41167;SDS011;26906;45.658;9.272;2023-01-10T20:36:21;17.25;;;9.00;;
41167;SDS011;26906;45.658;9.272;2023-01-10T20:38:47;18.27;;;9.20;;
41167;SDS011;26906;45.658;9.272;2023-01-10T20:41:17;10.50;;;6.43;;
41167;SDS011;26906;45.658;9.272;2023-01-10T20:43:44;9.80;;;5.80;;
41167;SDS011;26906;45.658;9.272;2023-01-10T20:46:12;10.73;;;7.13;;
41167;SDS011;26906;45.658;9.272;2023-01-10T20:48:39;18.98;;;10.45;;
41167;SDS011;26906;45.658;9.272;2023-01-10T20:51:06;17.70;;;10.77;;
41167;SDS011;26906;45.658;9.272;2023-01-10T20:53:37;13.48;;;8.75;;
41167;SDS011;26906;45.658;9.272;2023-01-10T20:56:07;7.40;;;5.07;;
41167;SDS011;26906;45.658;9.272;2023-01-10T20:58:35;5.78;;;4.18;;
41167;SDS011;26906;45.658;9.272;2023-01-10T21:01:03;10.18;;;6.63;;
41167;SDS011;26906;45.658;9.272;2023-01-10T21:03:31;14.98;;;8.43;;
41167;SDS011;26906;45.658;9.272;2023-01-10T21:05:57;10.80;;;7.07;;
41167;SDS011;26906;45.658;9.272;2023-01-10T21:08:24;16.70;;;9.10;;
41167;SDS011;26906;45.658;9.272;2023-01-10T21:10:50;14.43;;;8.25;;
41167;SDS011;26906;45.658;9.272;2023-01-10T21:13:17;14.20;;;7.97;;
41167;SDS011;26906;45.658;9.272;2023-01-10T21:15:44;17.98;;;9.93;;
41167;SDS011;26906;45.658;9.272;2023-01-10T21:18:11;29.38;;;14.75;;
41167;SDS011;26906;45.658;9.272;2023-01-10T21:20:40;16.10;;;9.65;;
41167;SDS011;26906;45.658;9.272;2023-01-10T21:23:09;19.08;;;9.80;;
